createdAt,value
2017-09-16T00:00:22.759Z,4.97
2017-09-16T00:02:50.197Z,4.93
2017-09-16T00:05:17.729Z,4.40
2017-09-16T00:07:45.149Z,4.43
2017-09-16T00:10:12.576Z,3.73
2017-09-16T00:12:40.114Z,3.30
2017-09-16T00:15:07.552Z,4.70
2017-09-16T00:17:34.978Z,4.73
2017-09-16T00:20:02.421Z,4.00
2017-09-16T00:22:29.853Z,5.17
2017-09-16T00:24:57.335Z,4.50
2017-09-16T00:27:24.845Z,3.60
2017-09-16T00:29:52.265Z,4.40
2017-09-16T00:32:19.756Z,3.93
2017-09-16T00:34:47.185Z,4.23
2017-09-16T00:37:14.613Z,4.33
2017-09-16T00:39:42.123Z,4.10
2017-09-16T00:42:09.548Z,3.83
2017-09-16T00:44:36.985Z,3.90
2017-09-16T00:47:04.429Z,4.20
2017-09-16T00:49:31.868Z,4.40
2017-09-16T00:51:59.285Z,4.50
2017-09-16T00:54:26.865Z,4.28
2017-09-16T00:56:54.315Z,3.90
2017-09-16T00:59:21.784Z,4.33
2017-09-16T01:01:49.239Z,3.93
2017-09-16T01:04:16.884Z,4.67
2017-09-16T01:06:44.460Z,5.13
2017-09-16T01:09:11.913Z,4.50
2017-09-16T01:11:39.368Z,4.20
2017-09-16T01:14:06.835Z,4.62
2017-09-16T01:16:34.296Z,4.57
2017-09-16T01:19:01.916Z,4.50
2017-09-16T01:21:30.216Z,4.20
2017-09-16T01:23:57.870Z,4.40
2017-09-16T01:26:25.310Z,3.97
2017-09-16T01:28:52.731Z,3.97
2017-09-16T01:31:20.929Z,4.43
2017-09-16T01:33:48.383Z,4.87
2017-09-16T01:36:15.828Z,4.50
2017-09-16T01:38:43.252Z,5.23
2017-09-16T01:41:10.900Z,5.00
2017-09-16T01:43:38.477Z,5.05
2017-09-16T01:46:06.018Z,4.68
2017-09-16T01:48:33.494Z,3.83
2017-09-16T01:51:01.017Z,4.30
2017-09-16T01:53:28.516Z,4.80
2017-09-16T01:55:55.962Z,4.10
2017-09-16T01:58:23.417Z,4.50
2017-09-16T02:00:50.868Z,5.37
2017-09-16T02:03:18.316Z,4.60
2017-09-16T02:05:45.761Z,5.17
2017-09-16T02:08:13.236Z,5.80
2017-09-16T02:10:40.640Z,4.00
2017-09-16T02:13:08.077Z,4.30
2017-09-16T02:15:36.372Z,4.25
2017-09-16T02:18:03.946Z,4.35
2017-09-16T02:20:31.416Z,4.30
2017-09-16T02:22:58.981Z,4.85
2017-09-16T02:25:26.412Z,5.35
2017-09-16T02:27:53.853Z,6.70
2017-09-16T02:30:21.340Z,4.95
2017-09-16T02:32:48.769Z,4.97
2017-09-16T02:35:16.208Z,4.93
2017-09-16T02:37:43.637Z,5.15
2017-09-16T02:40:11.169Z,5.18
2017-09-16T02:42:38.618Z,5.90
2017-09-16T02:45:06.092Z,5.60
2017-09-16T02:47:33.859Z,4.90
2017-09-16T02:50:01.289Z,5.20
2017-09-16T02:52:28.719Z,5.07
2017-09-16T02:54:56.152Z,4.97
2017-09-16T02:57:23.589Z,5.40
2017-09-16T02:59:51.007Z,5.37
2017-09-16T03:02:18.580Z,5.10
2017-09-16T03:04:46.345Z,5.10
2017-09-16T03:07:13.997Z,4.57
2017-09-16T03:09:41.574Z,4.93
2017-09-16T03:12:09.325Z,5.20
2017-09-16T03:14:36.749Z,4.80
2017-09-16T03:17:04.240Z,4.22
2017-09-16T03:19:31.703Z,4.50
2017-09-16T03:21:59.341Z,4.20
2017-09-16T03:24:26.825Z,4.03
2017-09-16T03:26:54.366Z,3.50
2017-09-16T03:29:21.864Z,3.72
2017-09-16T03:31:49.600Z,3.70
2017-09-16T03:34:17.066Z,3.55
2017-09-16T03:36:44.502Z,3.33
2017-09-16T03:39:11.968Z,3.80
2017-09-16T03:41:39.596Z,3.50
2017-09-16T03:44:07.037Z,3.92
2017-09-16T03:46:35.261Z,3.70
2017-09-16T03:49:02.701Z,3.95
2017-09-16T03:51:30.135Z,3.58
2017-09-16T03:53:57.555Z,4.45
2017-09-16T03:56:25.087Z,3.75
2017-09-16T03:58:52.522Z,4.18
2017-09-16T04:01:31.758Z,3.60
2017-09-16T04:03:59.312Z,4.20
2017-09-16T04:06:26.773Z,3.70
2017-09-16T04:08:54.336Z,3.85
2017-09-16T04:11:21.764Z,2.87
2017-09-16T04:13:49.200Z,3.75
2017-09-16T04:16:16.641Z,4.28
2017-09-16T04:18:44.174Z,3.30
2017-09-16T04:21:11.606Z,3.40
2017-09-16T04:23:39.041Z,3.45
2017-09-16T04:26:06.484Z,3.27
2017-09-16T04:28:33.909Z,3.42
2017-09-16T04:31:01.365Z,3.50
2017-09-16T04:33:28.792Z,3.20
2017-09-16T04:35:56.541Z,3.10
2017-09-16T04:38:23.959Z,3.15
2017-09-16T04:40:51.402Z,3.47
2017-09-16T04:43:18.856Z,3.87
2017-09-16T04:45:46.371Z,3.30
2017-09-16T04:48:13.947Z,3.20
2017-09-16T04:50:41.703Z,4.00
2017-09-16T04:53:09.137Z,4.07
2017-09-16T04:55:36.556Z,3.80
2017-09-16T04:58:04.077Z,3.95
2017-09-16T05:00:31.497Z,4.47
2017-09-16T05:02:58.992Z,3.78
2017-09-16T05:05:26.421Z,4.03
2017-09-16T05:07:53.853Z,3.50
2017-09-16T05:10:21.277Z,3.30
2017-09-16T05:12:48.733Z,3.67
2017-09-16T05:15:16.264Z,3.40
2017-09-16T05:17:43.696Z,3.72
2017-09-16T05:20:11.181Z,3.35
2017-09-16T05:22:38.618Z,4.47
2017-09-16T05:25:06.054Z,3.90
2017-09-16T05:27:33.477Z,3.85
2017-09-16T05:30:01.017Z,3.80
2017-09-16T05:32:28.473Z,3.78
2017-09-16T05:34:55.933Z,3.78
2017-09-16T05:37:23.705Z,4.10
2017-09-16T05:39:51.136Z,4.00
2017-09-16T05:42:18.561Z,4.05
2017-09-16T05:44:46.021Z,3.83
2017-09-16T05:47:13.429Z,3.20
2017-09-16T05:49:40.859Z,4.97
2017-09-16T05:52:08.371Z,3.75
2017-09-16T05:54:35.885Z,3.80
2017-09-16T05:57:03.326Z,3.95
2017-09-16T05:59:30.807Z,4.87
2017-09-16T06:01:58.248Z,4.80
2017-09-16T06:04:25.677Z,5.15
2017-09-16T06:06:53.124Z,4.50
2017-09-16T06:09:20.545Z,5.10
2017-09-16T06:11:47.979Z,5.65
2017-09-16T06:14:15.410Z,6.00
2017-09-16T06:16:42.997Z,4.75
2017-09-16T06:19:10.628Z,4.80
2017-09-16T06:21:38.121Z,4.53
2017-09-16T06:24:05.554Z,5.22
2017-09-16T06:26:33.023Z,5.07
2017-09-16T06:29:00.573Z,5.30
2017-09-16T06:31:28.008Z,5.57
2017-09-16T06:33:55.490Z,5.85
2017-09-16T06:36:22.925Z,5.87
2017-09-16T06:38:50.408Z,5.97
2017-09-16T06:41:18.060Z,5.03
2017-09-16T06:43:45.502Z,4.97
2017-09-16T06:46:12.989Z,6.37
2017-09-16T06:48:40.458Z,5.33
2017-09-16T06:51:07.890Z,5.33
2017-09-16T06:53:35.408Z,5.47
2017-09-16T06:56:02.820Z,5.73
2017-09-16T06:58:30.364Z,5.83
2017-09-16T07:00:57.829Z,6.30
2017-09-16T07:03:25.439Z,5.80
2017-09-16T07:05:53.655Z,6.10
2017-09-16T07:08:21.110Z,5.00
2017-09-16T07:10:48.564Z,6.80
2017-09-16T07:13:15.997Z,5.23
2017-09-16T07:15:43.480Z,6.10
2017-09-16T07:18:10.917Z,6.50
2017-09-16T07:20:38.388Z,7.00
2017-09-16T07:23:05.817Z,7.90
2017-09-16T07:25:33.387Z,7.17
2017-09-16T07:28:01.063Z,7.07
2017-09-16T07:30:28.508Z,7.43
2017-09-16T07:32:55.981Z,8.10
2017-09-16T07:35:23.401Z,7.47
2017-09-16T07:37:50.845Z,6.80
2017-09-16T07:40:18.268Z,6.60
2017-09-16T07:42:45.821Z,6.50
2017-09-16T07:45:13.250Z,6.10
2017-09-16T07:47:40.684Z,7.10
2017-09-16T07:50:08.561Z,6.80
2017-09-16T07:52:36.130Z,6.87
2017-09-16T07:55:03.584Z,7.80
2017-09-16T07:57:31.153Z,7.27
2017-09-16T07:59:58.588Z,8.63
2017-09-16T08:02:26.021Z,7.77
2017-09-16T08:04:53.465Z,7.80
2017-09-16T08:07:20.993Z,7.60
2017-09-16T08:09:48.421Z,8.27
2017-09-16T08:12:15.896Z,8.17
2017-09-16T08:14:43.337Z,7.83
2017-09-16T08:17:10.784Z,8.70
2017-09-16T08:19:38.263Z,7.60
2017-09-16T08:22:05.735Z,6.33
2017-09-16T08:24:33.176Z,6.87
2017-09-16T08:27:00.587Z,7.47
2017-09-16T08:29:28.060Z,7.73
2017-09-16T08:31:55.475Z,7.37
2017-09-16T08:34:23.005Z,7.93
2017-09-16T08:36:50.512Z,6.70
2017-09-16T08:39:18.237Z,6.30
2017-09-16T08:41:45.884Z,5.33
2017-09-16T08:44:13.361Z,6.07
2017-09-16T08:46:41.533Z,5.70
2017-09-16T08:49:09.278Z,7.20
2017-09-16T08:51:36.721Z,6.20
2017-09-16T08:54:04.150Z,6.87
2017-09-16T08:56:31.658Z,6.70
2017-09-16T08:58:59.413Z,6.77
2017-09-16T09:01:26.838Z,6.30
2017-09-16T09:03:54.341Z,6.20
2017-09-16T09:06:22.080Z,6.80
2017-09-16T09:08:49.507Z,6.70
2017-09-16T09:11:16.996Z,6.10
2017-09-16T09:13:44.757Z,5.50
2017-09-16T09:16:12.192Z,6.07
2017-09-16T09:18:39.617Z,6.47
2017-09-16T09:21:07.129Z,5.27
2017-09-16T09:23:34.589Z,5.63
2017-09-16T09:26:02.044Z,6.53
2017-09-16T09:28:29.681Z,7.50
2017-09-16T09:30:57.216Z,6.90
2017-09-16T09:33:24.636Z,7.40
2017-09-16T09:35:52.075Z,7.47
2017-09-16T09:38:19.657Z,7.10
2017-09-16T09:40:47.388Z,6.50
2017-09-16T09:43:14.845Z,6.83
2017-09-16T09:45:42.282Z,7.37
2017-09-16T09:48:09.703Z,9.30
2017-09-16T09:50:37.217Z,7.63
2017-09-16T09:53:04.647Z,8.07
2017-09-16T09:55:32.128Z,9.23
2017-09-16T09:57:59.548Z,8.10
2017-09-16T10:00:27.050Z,8.30
2017-09-16T10:02:54.467Z,8.00
2017-09-16T10:05:21.887Z,8.37
2017-09-16T10:07:49.316Z,7.93
2017-09-16T10:10:16.769Z,8.17
2017-09-16T10:12:44.237Z,7.10
2017-09-16T10:15:11.684Z,7.07
2017-09-16T10:17:39.140Z,5.60
2017-09-16T10:20:06.560Z,7.37
2017-09-16T10:22:34.091Z,7.30
2017-09-16T10:25:02.280Z,5.83
2017-09-16T10:27:29.894Z,5.63
2017-09-16T10:29:57.315Z,6.83
2017-09-16T10:32:24.772Z,5.33
2017-09-16T10:34:52.352Z,5.13
2017-09-16T10:37:19.793Z,5.93
2017-09-16T10:39:47.217Z,5.90
2017-09-16T10:42:14.652Z,5.10
2017-09-16T10:44:42.077Z,5.10
2017-09-16T10:47:09.547Z,4.30
2017-09-16T10:49:37.077Z,5.73
2017-09-16T10:52:04.525Z,4.47
2017-09-16T10:54:31.950Z,4.50
2017-09-16T10:57:00.150Z,5.00
2017-09-16T10:59:27.811Z,4.93
2017-09-16T11:01:55.251Z,5.20
2017-09-16T11:04:22.745Z,4.93
2017-09-16T11:06:50.214Z,4.87
2017-09-16T11:09:17.636Z,5.43
2017-09-16T11:11:45.061Z,4.60
2017-09-16T11:14:12.496Z,4.47
2017-09-16T11:16:39.944Z,5.03
2017-09-16T11:19:07.377Z,4.87
2017-09-16T11:21:34.806Z,5.33
2017-09-16T11:24:03.075Z,4.20
2017-09-16T11:26:30.664Z,5.60
2017-09-16T11:28:58.113Z,5.40
2017-09-16T11:31:25.684Z,4.73
2017-09-16T11:33:53.126Z,3.80
2017-09-16T11:36:20.559Z,4.43
2017-09-16T11:38:48.023Z,3.80
2017-09-16T11:41:15.436Z,2.90
2017-09-16T11:43:42.897Z,2.80
2017-09-16T11:46:10.425Z,3.30
2017-09-16T11:48:37.889Z,2.50
2017-09-16T11:51:05.494Z,2.77
2017-09-16T11:53:32.968Z,3.10
2017-09-16T11:56:00.428Z,3.40
2017-09-16T11:58:28.653Z,3.20
2017-09-16T12:00:56.139Z,4.00
2017-09-16T12:03:23.756Z,3.00
2017-09-16T12:05:51.269Z,3.80
2017-09-16T12:08:18.812Z,3.43
2017-09-16T12:10:46.253Z,3.00
2017-09-16T12:13:13.867Z,2.70
2017-09-16T12:15:41.314Z,2.97
2017-09-16T12:18:08.846Z,2.73
2017-09-16T12:20:36.277Z,3.63
2017-09-16T12:23:03.794Z,2.97
2017-09-16T12:25:31.240Z,3.50
2017-09-16T12:27:58.725Z,3.10
2017-09-16T12:30:26.174Z,3.30
2017-09-16T12:32:53.589Z,2.33
2017-09-16T12:35:21.034Z,2.50
2017-09-16T12:37:48.454Z,3.00
2017-09-16T12:40:15.962Z,3.60
2017-09-16T12:42:43.392Z,2.70
2017-09-16T12:45:10.913Z,2.63
2017-09-16T12:47:38.397Z,2.20
2017-09-16T12:50:06.589Z,2.50
2017-09-16T12:52:34.196Z,2.50
2017-09-16T12:55:01.661Z,2.70
2017-09-16T12:57:29.116Z,2.20
2017-09-16T12:59:56.553Z,2.70
2017-09-16T13:02:24.034Z,2.00
2017-09-16T13:04:51.669Z,1.93
2017-09-16T13:07:19.249Z,1.73
2017-09-16T13:09:46.742Z,2.33
2017-09-16T13:12:15.677Z,1.90
2017-09-16T13:14:43.113Z,1.90
2017-09-16T13:22:04.825Z,2.23
2017-09-16T13:24:32.303Z,2.20
2017-09-16T13:26:59.826Z,2.43
2017-09-16T13:29:27.255Z,1.95
2017-09-16T13:31:54.691Z,2.57
2017-09-16T13:34:22.145Z,2.57
2017-09-16T13:36:49.576Z,2.27
2017-09-16T13:39:17.109Z,2.00
2017-09-16T13:41:44.544Z,1.60
2017-09-16T13:44:11.968Z,1.97
2017-09-16T13:46:39.417Z,2.17
2017-09-16T13:49:06.937Z,1.80
2017-09-16T13:51:34.656Z,1.67
2017-09-16T13:54:02.053Z,2.20
2017-09-16T13:56:29.624Z,2.75
2017-09-16T13:58:57.246Z,2.47
2017-09-16T14:01:24.741Z,2.23
2017-09-16T14:03:52.197Z,2.20
2017-09-16T14:06:19.741Z,2.40
2017-09-16T14:08:47.514Z,1.90
2017-09-16T14:11:15.273Z,2.60
2017-09-16T14:13:42.749Z,3.03
2017-09-16T14:16:10.201Z,3.07
2017-09-16T14:18:37.836Z,2.40
2017-09-16T14:21:05.321Z,2.70
2017-09-16T14:23:33.676Z,2.77
2017-09-16T14:26:01.233Z,1.77
2017-09-16T14:28:28.678Z,2.40
2017-09-16T14:30:56.109Z,2.37
2017-09-16T14:33:23.614Z,3.30
2017-09-16T14:35:51.055Z,2.20
2017-09-16T14:38:18.509Z,3.60
2017-09-16T14:40:45.937Z,2.17
2017-09-16T14:43:13.420Z,2.23
2017-09-16T14:45:41.046Z,2.17
2017-09-16T14:48:09.446Z,2.17
2017-09-16T14:50:36.890Z,1.80
2017-09-16T14:53:04.477Z,1.73
2017-09-16T14:55:31.928Z,1.97
2017-09-16T14:57:59.382Z,1.90
2017-09-16T15:00:26.794Z,1.77
2017-09-16T15:02:54.209Z,2.07
2017-09-16T15:05:21.674Z,2.07
2017-09-16T15:07:49.104Z,2.03
2017-09-16T15:10:16.585Z,1.80
2017-09-16T15:12:44.045Z,2.10
2017-09-16T15:15:11.474Z,2.70
2017-09-16T15:17:39.036Z,3.20
2017-09-16T15:20:06.473Z,2.17
2017-09-16T15:22:33.889Z,2.10
2017-09-16T15:25:01.325Z,1.70
2017-09-16T15:27:28.741Z,1.80
2017-09-16T15:29:56.214Z,2.80
2017-09-16T15:32:23.684Z,2.93
2017-09-16T15:34:51.236Z,3.80
2017-09-16T15:37:18.739Z,3.03
2017-09-16T15:39:46.447Z,4.13
2017-09-16T15:42:13.891Z,3.10
2017-09-16T15:44:42.292Z,3.70
2017-09-16T15:47:09.746Z,4.00
2017-09-16T15:49:37.170Z,3.00
2017-09-16T15:52:04.669Z,3.30
2017-09-16T15:56:59.171Z,5.10
2017-09-16T15:59:26.721Z,4.10
2017-09-16T16:01:54.167Z,4.40
2017-09-16T16:04:21.580Z,4.30
2017-09-16T16:06:49.018Z,3.20
2017-09-16T16:09:16.436Z,3.27
2017-09-16T16:11:43.883Z,3.10
2017-09-16T16:14:11.364Z,3.30
2017-09-16T16:16:38.794Z,2.93
2017-09-16T16:19:06.257Z,2.40
2017-09-16T16:21:33.714Z,2.27
2017-09-16T16:24:02.124Z,2.97
2017-09-16T16:26:29.555Z,2.37
2017-09-16T16:28:57.024Z,2.53
2017-09-16T16:31:24.578Z,2.87
2017-09-16T16:33:52.024Z,2.00
2017-09-16T16:36:19.436Z,2.50
2017-09-16T16:38:46.862Z,2.83
2017-09-16T16:41:14.312Z,2.27
2017-09-16T16:43:41.858Z,1.90
2017-09-16T16:46:09.300Z,1.83
2017-09-16T16:48:36.717Z,2.50
2017-09-16T16:51:04.141Z,2.70
2017-09-16T16:53:31.680Z,2.47
2017-09-16T16:55:59.100Z,2.20
2017-09-16T16:58:26.515Z,2.53
2017-09-16T17:00:54.001Z,2.10
2017-09-16T17:03:22.345Z,2.87
2017-09-16T17:05:49.809Z,2.60
2017-09-16T17:08:17.338Z,2.03
2017-09-16T17:10:44.767Z,2.60
2017-09-16T17:13:12.187Z,2.70
2017-09-16T17:15:40.689Z,2.60
2017-09-16T17:18:08.285Z,2.27
2017-09-16T17:20:35.873Z,2.37
2017-09-16T17:23:03.317Z,3.57
2017-09-16T17:25:30.753Z,4.33
2017-09-16T17:27:58.185Z,3.47
2017-09-16T17:30:25.746Z,3.50
2017-09-16T17:32:53.444Z,3.03
2017-09-16T17:35:20.874Z,3.07
2017-09-16T17:37:48.353Z,2.80
2017-09-16T17:40:15.807Z,2.67
2017-09-16T17:42:43.254Z,3.07
2017-09-16T17:45:10.672Z,3.27
2017-09-16T17:47:38.097Z,3.60
2017-09-16T17:50:05.542Z,3.50
2017-09-16T17:52:32.974Z,3.27
2017-09-16T17:55:00.422Z,3.13
2017-09-16T17:57:27.874Z,4.10
2017-09-16T17:59:55.333Z,4.10
2017-09-16T18:02:22.892Z,4.80
2017-09-16T18:04:50.321Z,3.80
2017-09-16T18:07:17.750Z,3.10
2017-09-16T18:09:45.285Z,3.93
2017-09-16T18:12:12.704Z,2.97
2017-09-16T18:14:40.131Z,3.03
2017-09-16T18:17:07.608Z,3.13
2017-09-16T18:19:37.185Z,4.23
2017-09-16T18:22:04.616Z,2.60
2017-09-16T18:24:32.052Z,2.90
2017-09-16T18:26:59.499Z,3.17
2017-09-16T18:29:26.921Z,2.80
2017-09-16T18:31:55.120Z,3.03
2017-09-16T18:34:22.554Z,2.93
2017-09-16T18:36:49.984Z,2.80
2017-09-16T18:39:17.414Z,2.67
2017-09-16T18:41:44.973Z,3.00
2017-09-16T18:44:12.438Z,2.20
2017-09-16T18:46:39.901Z,2.63
2017-09-16T18:49:07.649Z,2.83
2017-09-16T18:51:35.079Z,3.07
2017-09-16T18:54:02.501Z,2.90
2017-09-16T18:56:29.944Z,2.80
2017-09-16T18:58:57.389Z,3.50
2017-09-16T19:01:24.833Z,3.20
2017-09-16T19:03:52.307Z,3.10
2017-09-16T19:06:19.729Z,2.90
2017-09-16T19:08:47.197Z,2.90
2017-09-16T19:11:14.757Z,2.37
2017-09-16T19:13:42.204Z,2.70
2017-09-16T19:16:09.629Z,3.27
2017-09-16T19:18:37.069Z,2.67
2017-09-16T19:21:04.584Z,2.70
2017-09-16T19:23:32.041Z,2.33
2017-09-16T19:25:59.818Z,2.67
2017-09-16T19:28:27.435Z,3.20
2017-09-16T19:30:54.972Z,2.70
2017-09-16T19:33:23.289Z,2.43
2017-09-16T19:35:50.862Z,2.93
2017-09-16T19:38:18.491Z,2.80
2017-09-16T19:40:45.925Z,2.87
2017-09-16T19:43:14.139Z,2.80
2017-09-16T19:45:41.609Z,3.47
2017-09-16T19:48:09.045Z,3.60
2017-09-16T19:50:36.476Z,2.73
2017-09-16T19:53:03.975Z,2.40
2017-09-16T19:55:31.732Z,2.93
2017-09-16T19:57:59.189Z,2.67
2017-09-16T20:00:26.828Z,2.90
2017-09-16T20:02:54.410Z,2.70
2017-09-16T20:05:21.872Z,3.63
2017-09-16T20:07:49.310Z,2.80
2017-09-16T20:10:16.744Z,2.57
2017-09-16T20:12:44.232Z,3.10
2017-09-16T20:15:11.689Z,3.13
2017-09-16T20:17:39.341Z,3.40
2017-09-16T20:20:06.908Z,3.63
2017-09-16T20:22:34.349Z,2.57
2017-09-16T20:25:01.835Z,3.10
2017-09-16T20:27:29.476Z,4.20
2017-09-16T20:29:56.919Z,4.73
2017-09-16T20:32:24.412Z,5.00
2017-09-16T20:34:51.967Z,5.00
2017-09-16T20:37:19.727Z,4.80
2017-09-16T20:39:47.377Z,6.87
2017-09-16T20:42:14.950Z,5.80
2017-09-16T20:44:42.707Z,6.57
2017-09-16T20:47:10.156Z,6.27
2017-09-16T20:49:37.609Z,6.13
2017-09-16T20:52:05.036Z,6.10
2017-09-16T20:54:32.474Z,5.00
2017-09-16T20:56:59.998Z,5.77
2017-09-16T20:59:27.638Z,6.10
2017-09-16T21:01:55.068Z,5.10
2017-09-16T21:04:22.661Z,6.03
2017-09-16T21:06:50.096Z,7.40
2017-09-16T21:09:17.589Z,7.27
2017-09-16T21:11:44.993Z,6.90
2017-09-16T21:14:12.497Z,7.17
2017-09-16T21:16:40.248Z,6.60
2017-09-16T21:19:07.893Z,6.97
2017-09-16T21:21:35.390Z,7.13
2017-09-16T21:24:02.831Z,7.50
2017-09-16T21:26:30.300Z,7.53
2017-09-16T21:28:57.801Z,7.17
2017-09-16T21:31:25.225Z,7.83
2017-09-16T21:33:52.658Z,7.20
2017-09-16T21:36:20.214Z,7.17
2017-09-16T21:38:47.641Z,7.70
2017-09-16T21:41:15.131Z,8.67
2017-09-16T21:43:42.881Z,9.00
2017-09-16T21:46:10.306Z,8.53
2017-09-16T21:48:37.760Z,7.83
2017-09-16T21:51:05.198Z,6.33
2017-09-16T21:53:32.645Z,6.00
2017-09-16T21:56:00.077Z,6.40
2017-09-16T21:58:27.631Z,7.50
2017-09-16T22:00:55.081Z,6.30
2017-09-16T22:03:22.716Z,6.20
2017-09-16T22:05:50.182Z,5.90
2017-09-16T22:08:17.751Z,5.57
2017-09-16T22:10:45.181Z,5.20
2017-09-16T22:13:12.656Z,5.50
2017-09-16T22:15:40.105Z,6.87
2017-09-16T22:18:07.580Z,7.10
2017-09-16T22:20:35.013Z,5.57
2017-09-16T22:23:02.442Z,6.50
2017-09-16T22:25:29.868Z,5.57
2017-09-16T22:27:57.352Z,5.90
2017-09-16T22:30:24.793Z,5.60
2017-09-16T22:32:52.233Z,5.97
2017-09-16T22:35:19.678Z,5.17
2017-09-16T22:37:47.142Z,5.70
2017-09-16T22:40:14.617Z,5.70
2017-09-16T22:42:42.045Z,5.50
2017-09-16T22:45:09.607Z,5.23
2017-09-16T22:47:37.025Z,5.20
2017-09-16T22:50:04.498Z,4.80
2017-09-16T22:52:31.937Z,6.47
2017-09-16T22:54:59.401Z,5.90
2017-09-16T22:57:26.789Z,6.40
2017-09-16T22:59:54.225Z,5.13
2017-09-16T23:02:21.668Z,5.50
2017-09-16T23:04:49.086Z,6.17
2017-09-16T23:07:16.621Z,5.90
2017-09-16T23:09:44.159Z,6.43
2017-09-16T23:12:11.597Z,6.53
2017-09-16T23:14:39.069Z,6.17
2017-09-16T23:17:06.503Z,7.67
2017-09-16T23:19:34.040Z,6.97
2017-09-16T23:22:01.530Z,6.17
2017-09-16T23:24:29.233Z,5.77
2017-09-16T23:26:56.677Z,5.60
2017-09-16T23:29:24.117Z,5.50
2017-09-16T23:31:51.756Z,6.37
2017-09-16T23:34:19.272Z,5.77
2017-09-16T23:36:46.728Z,6.00
2017-09-16T23:39:14.177Z,6.17
2017-09-16T23:41:41.597Z,5.07
2017-09-16T23:44:09.174Z,6.10
2017-09-16T23:46:36.620Z,5.37
2017-09-16T23:49:04.052Z,6.67
2017-09-16T23:51:31.473Z,7.00
2017-09-16T23:53:58.980Z,5.77
2017-09-16T23:56:26.446Z,5.80
2017-09-16T23:58:53.888Z,5.23
